createdAt,value
2018-12-16T09:18:49.824Z,980.215
2018-12-16T09:20:49.590Z,980.204
2018-12-16T09:22:50.626Z,980.190
2018-12-16T09:24:50.427Z,980.180
2018-12-16T09:26:50.579Z,980.193
2018-12-16T09:28:50.413Z,980.177
2018-12-16T09:30:50.278Z,980.179
2018-12-16T09:32:50.091Z,980.189
2018-12-16T09:34:50.206Z,980.223
2018-12-16T09:36:50.282Z,980.221
2018-12-16T09:38:50.163Z,980.210
2018-12-16T09:40:50.054Z,980.198
2018-12-16T09:42:49.930Z,980.167
2018-12-16T09:44:49.740Z,980.078
2018-12-16T09:46:50.098Z,980.054
2018-12-16T09:48:49.960Z,979.993
2018-12-16T09:50:49.909Z,979.939
2018-12-16T09:52:49.787Z,979.939
2018-12-16T09:54:49.617Z,979.916
2018-12-16T09:56:49.668Z,979.900
2018-12-16T09:58:50.580Z,979.891
2018-12-16T10:00:50.380Z,979.903
2018-12-16T10:02:50.233Z,979.935
2018-12-16T10:04:50.438Z,979.949
2018-12-16T10:06:50.457Z,979.921
2018-12-16T10:08:50.297Z,979.924
2018-12-16T10:10:50.136Z,979.887
2018-12-16T10:12:50.033Z,979.848
2018-12-16T10:14:49.860Z,979.811
2018-12-16T10:16:49.926Z,979.807
2018-12-16T10:18:49.820Z,979.794
2018-12-16T10:20:49.825Z,979.779
2018-12-16T10:22:49.716Z,979.781
2018-12-16T10:24:51.877Z,979.785
2018-12-16T10:26:49.938Z,979.748
2018-12-16T10:28:49.907Z,979.729
2018-12-16T10:30:49.750Z,979.702
2018-12-16T10:32:49.636Z,979.697
2018-12-16T10:34:49.799Z,979.661
2018-12-16T10:36:49.971Z,979.641
2018-12-16T10:38:49.784Z,979.611
2018-12-16T10:40:50.594Z,979.541
2018-12-16T10:42:50.466Z,979.498
2018-12-16T10:44:50.302Z,979.441
2018-12-16T10:46:50.313Z,979.444
2018-12-16T10:48:50.177Z,979.465
2018-12-16T10:50:49.997Z,979.513
2018-12-16T10:52:49.823Z,979.521
2018-12-16T10:54:49.768Z,979.498
2018-12-16T10:56:49.821Z,979.460
2018-12-16T10:58:49.783Z,979.425
2018-12-16T11:00:49.663Z,979.413
2018-12-16T11:02:50.284Z,979.406
2018-12-16T11:04:50.497Z,979.396
2018-12-16T11:06:49.719Z,979.383
2018-12-16T11:08:49.618Z,979.365
2018-12-16T11:10:50.473Z,979.321
2018-12-16T11:12:50.315Z,979.314
2018-12-16T11:14:50.182Z,979.306
2018-12-16T11:16:50.272Z,979.291
2018-12-16T11:18:50.098Z,979.272
2018-12-16T11:20:49.956Z,979.283
2018-12-16T11:22:49.775Z,979.272
2018-12-16T11:24:50.184Z,979.263
2018-12-16T11:26:49.986Z,979.281
2018-12-16T11:28:50.580Z,979.300
2018-12-16T11:30:50.362Z,979.341
2018-12-16T11:32:50.183Z,979.360
2018-12-16T11:34:50.313Z,979.348
2018-12-16T11:36:50.262Z,979.329
2018-12-16T11:38:50.170Z,979.297
2018-12-16T11:40:50.100Z,979.270
2018-12-16T11:42:49.973Z,979.224
2018-12-16T11:44:49.797Z,979.207
2018-12-16T11:46:49.939Z,979.202
2018-12-16T11:48:49.764Z,979.218
2018-12-16T11:50:49.723Z,979.226
2018-12-16T11:52:49.624Z,979.226
2018-12-16T11:54:50.481Z,979.227
2018-12-16T11:56:50.426Z,979.227
2018-12-16T11:58:50.382Z,979.240
2018-12-16T12:00:50.203Z,979.227
2018-12-16T12:02:50.058Z,979.228
2018-12-16T12:04:50.180Z,979.215
2018-12-16T12:06:50.165Z,979.213
2018-12-16T12:08:50.050Z,979.210
2018-12-16T12:10:49.886Z,979.188
2018-12-16T12:12:49.864Z,979.141
2018-12-16T12:14:49.756Z,979.099
2018-12-16T12:16:49.782Z,979.075
2018-12-16T12:18:49.769Z,979.082
2018-12-16T12:20:49.640Z,979.122
2018-12-16T12:22:50.528Z,979.144
2018-12-16T12:24:50.337Z,979.139
2018-12-16T12:26:50.440Z,979.131
2018-12-16T12:28:50.282Z,979.156
2018-12-16T12:30:50.165Z,979.116
2018-12-16T12:32:49.983Z,979.129
2018-12-16T12:34:50.122Z,979.145
2018-12-16T12:36:50.062Z,979.109
2018-12-16T12:38:49.838Z,979.089
2018-12-16T12:40:49.830Z,979.070
2018-12-16T12:42:49.682Z,979.085
2018-12-16T12:44:50.473Z,979.107
2018-12-16T12:46:50.428Z,979.108
2018-12-16T12:48:50.232Z,979.083
2018-12-16T12:50:50.061Z,979.113
2018-12-16T12:52:49.853Z,979.125
2018-12-16T12:54:49.821Z,979.166
2018-12-16T12:56:49.829Z,979.147
2018-12-16T12:58:49.767Z,979.151
2018-12-16T13:00:49.702Z,979.194
2018-12-16T13:02:50.537Z,979.214
2018-12-16T13:04:49.642Z,979.159
2018-12-16T13:06:49.847Z,979.130
2018-12-16T13:08:49.781Z,979.131
2018-12-16T13:10:50.562Z,979.129
2018-12-16T13:12:50.359Z,979.116
2018-12-16T13:14:50.204Z,979.092
2018-12-16T13:16:50.094Z,979.088
2018-12-16T13:18:49.859Z,979.129
2018-12-16T13:20:49.741Z,979.158
2018-12-16T13:22:50.514Z,979.166
2018-12-16T13:24:50.345Z,979.192
2018-12-16T13:26:50.407Z,979.235
2018-12-16T13:28:50.263Z,979.267
2018-12-16T13:30:50.097Z,979.268
2018-12-16T13:32:49.961Z,979.264
2018-12-16T13:34:50.214Z,979.255
2018-12-16T13:36:50.236Z,979.239
2018-12-16T13:38:50.080Z,979.272
2018-12-16T13:40:49.873Z,979.270
2018-12-16T13:42:49.764Z,979.252
2018-12-16T13:44:50.599Z,979.265
2018-12-16T13:46:49.687Z,979.261
2018-12-16T13:48:50.588Z,979.256
2018-12-16T13:50:50.411Z,979.256
2018-12-16T13:52:50.266Z,979.265
2018-12-16T13:54:50.181Z,979.296
2018-12-16T13:56:50.252Z,979.338
2018-12-16T13:58:50.096Z,979.356
2018-12-16T14:00:49.940Z,979.382
2018-12-16T14:02:50.222Z,979.389
2018-12-16T14:04:50.439Z,979.388
2018-12-16T14:06:50.362Z,979.389
2018-12-16T14:08:50.281Z,979.424
2018-12-16T14:10:50.106Z,979.454
2018-12-16T14:12:50.040Z,979.460
2018-12-16T14:14:49.904Z,979.477
2018-12-16T14:16:49.981Z,979.484
2018-12-16T14:18:49.820Z,979.517
2018-12-16T14:20:49.708Z,979.549
2018-12-16T14:22:49.596Z,979.581
2018-12-16T14:24:50.371Z,979.593
2018-12-16T14:26:50.427Z,979.608
2018-12-16T14:28:50.299Z,979.629
2018-12-16T14:30:50.118Z,979.629
2018-12-16T14:32:49.987Z,979.633
2018-12-16T14:34:50.156Z,979.667
2018-12-16T14:36:50.182Z,979.705
2018-12-16T14:38:50.047Z,979.719
2018-12-16T14:40:49.932Z,979.750
2018-12-16T14:42:49.724Z,979.777
2018-12-16T14:44:50.588Z,979.790
2018-12-16T14:46:49.721Z,979.812
2018-12-16T14:48:50.531Z,979.812
2018-12-16T14:50:50.394Z,979.799
2018-12-16T14:52:50.214Z,979.780
2018-12-16T14:54:50.007Z,979.777
2018-12-16T14:56:50.109Z,979.762
2018-12-16T14:58:49.902Z,979.774
2018-12-16T15:00:49.883Z,979.777
2018-12-16T15:02:49.782Z,979.813
2018-12-16T15:04:50.084Z,979.797
2018-12-16T15:06:50.258Z,979.802
2018-12-16T15:08:50.075Z,979.802
2018-12-16T15:10:49.960Z,979.852
2018-12-16T15:12:49.796Z,979.847
2018-12-16T15:14:49.727Z,979.850
2018-12-16T15:16:49.830Z,979.861
2018-12-16T15:18:49.705Z,979.869
2018-12-16T15:20:50.476Z,979.880
2018-12-16T15:22:50.508Z,979.903
2018-12-16T15:24:50.384Z,979.903
2018-12-16T15:26:50.316Z,979.947
2018-12-16T15:28:50.164Z,979.961
2018-12-16T15:30:50.079Z,979.972
2018-12-16T15:32:49.973Z,980.003
2018-12-16T15:34:50.185Z,980.030
2018-12-16T15:36:50.186Z,980.082
2018-12-16T15:38:50.029Z,980.091
2018-12-16T15:40:49.929Z,980.110
2018-12-16T15:42:49.977Z,980.105
2018-12-16T15:44:49.784Z,980.114
2018-12-16T15:46:49.865Z,980.155
2018-12-16T15:48:49.649Z,980.156
2018-12-16T15:50:50.432Z,980.138
2018-12-16T15:52:50.271Z,980.157
2018-12-16T15:54:50.098Z,980.165
2018-12-16T15:56:50.027Z,980.173
2018-12-16T15:58:49.849Z,980.195
2018-12-16T16:00:49.721Z,980.204
2018-12-16T16:02:50.526Z,980.207
2018-12-16T16:04:49.883Z,980.219
2018-12-16T16:06:49.974Z,980.212
2018-12-16T16:08:49.879Z,980.220
2018-12-16T16:10:49.768Z,980.209
2018-12-16T16:12:49.683Z,980.224
2018-12-16T16:14:50.455Z,980.259
2018-12-16T16:16:50.630Z,980.250
2018-12-16T16:18:50.444Z,980.224
2018-12-16T16:20:50.262Z,980.208
2018-12-16T16:22:50.113Z,980.201
2018-12-16T16:24:49.979Z,980.181
2018-12-16T16:26:50.034Z,980.213
2018-12-16T16:28:49.948Z,980.228
2018-12-16T16:30:49.785Z,980.244
2018-12-16T16:32:49.612Z,980.232
2018-12-16T16:34:49.827Z,980.253
2018-12-16T16:36:49.957Z,980.251
2018-12-16T16:38:49.895Z,980.309
2018-12-16T16:40:49.717Z,980.379
2018-12-16T16:42:49.685Z,980.391
2018-12-16T16:44:50.545Z,980.404
2018-12-16T16:46:50.550Z,980.419
2018-12-16T16:48:50.396Z,980.438
2018-12-16T16:50:50.182Z,980.440
2018-12-16T16:52:50.005Z,980.434
2018-12-16T16:54:49.842Z,980.447
2018-12-16T16:56:50.045Z,980.448
2018-12-16T16:58:49.832Z,980.474
2018-12-16T17:00:49.621Z,980.474
2018-12-16T17:02:50.589Z,980.547
2018-12-16T17:04:49.613Z,980.548
2018-12-16T17:06:49.757Z,980.544
2018-12-16T17:08:49.663Z,980.545
2018-12-16T17:10:50.410Z,980.554
2018-12-16T17:12:50.261Z,980.566
2018-12-16T17:14:50.008Z,980.605
2018-12-16T17:16:50.072Z,980.631
2018-12-16T17:18:49.890Z,980.644
2018-12-16T17:20:49.777Z,980.657
2018-12-16T17:22:49.662Z,980.673
2018-12-16T17:24:50.485Z,980.712
2018-12-16T17:26:50.553Z,980.752
2018-12-16T17:28:50.300Z,980.752
2018-12-16T17:30:50.132Z,980.821
2018-12-16T17:32:49.992Z,980.829
2018-12-16T17:34:50.150Z,980.826
2018-12-16T17:36:50.175Z,980.798
2018-12-16T17:38:49.969Z,980.801
2018-12-16T17:40:49.786Z,980.815
2018-12-16T17:42:49.604Z,980.833
2018-12-16T17:44:50.535Z,980.860
2018-12-16T17:46:50.471Z,980.877
2018-12-16T17:48:50.445Z,980.910
2018-12-16T17:50:50.245Z,980.924
2018-12-16T17:52:50.175Z,980.943
2018-12-16T17:54:50.034Z,980.958
2018-12-16T17:56:50.179Z,981.008
2018-12-16T17:58:50.045Z,981.029
2018-12-16T18:00:49.874Z,981.022
2018-12-16T18:02:49.774Z,981.013
2018-12-16T18:04:50.116Z,981.013
2018-12-16T18:06:50.156Z,980.958
2018-12-16T18:08:50.070Z,980.983
2018-12-16T18:10:49.961Z,980.994
2018-12-16T18:12:49.888Z,981.071
2018-12-16T18:14:49.700Z,981.059
2018-12-16T18:16:49.736Z,981.035
2018-12-16T18:18:50.512Z,981.018
2018-12-16T18:20:50.405Z,981.021
2018-12-16T18:22:50.308Z,981.050
2018-12-16T18:24:50.308Z,981.142
2018-12-16T18:26:50.274Z,981.151
2018-12-16T18:28:50.096Z,981.148
2018-12-16T18:30:49.972Z,981.153
2018-12-16T18:32:49.782Z,981.177
2018-12-16T18:34:50.167Z,981.200
2018-12-16T18:36:50.192Z,981.214
2018-12-16T18:38:50.015Z,981.213
2018-12-16T18:40:49.874Z,981.190
2018-12-16T18:42:49.761Z,981.184
2018-12-16T18:44:50.573Z,981.178
2018-12-16T18:46:50.483Z,981.178
2018-12-16T18:48:50.303Z,981.180
2018-12-16T18:50:50.119Z,981.204
2018-12-16T18:52:49.885Z,981.238
2018-12-16T18:54:49.696Z,981.248
2018-12-16T18:56:51.584Z,981.255
2018-12-16T18:58:50.434Z,981.255
2018-12-16T19:00:50.292Z,981.247
2018-12-16T19:02:52.009Z,981.246
2018-12-16T19:04:50.087Z,981.272
2018-12-16T19:06:50.069Z,981.337
2018-12-16T19:08:49.914Z,981.353
2018-12-16T19:10:49.832Z,981.339
2018-12-16T19:12:49.757Z,981.339
2018-12-16T19:14:49.702Z,981.308
2018-12-16T19:16:49.708Z,981.303
2018-12-16T19:18:50.566Z,981.295
2018-12-16T19:20:50.448Z,981.310
2018-12-16T19:22:50.278Z,981.299
2018-12-16T19:24:50.101Z,981.318
2018-12-16T19:26:50.012Z,981.309
2018-12-16T19:28:49.828Z,981.317
2018-12-16T19:30:49.697Z,981.320
2018-12-16T19:32:49.674Z,981.318
2018-12-16T19:34:49.778Z,981.354
2018-12-16T19:36:49.882Z,981.422
2018-12-16T19:38:49.713Z,981.459
2018-12-16T19:40:50.594Z,981.477
2018-12-16T19:42:50.461Z,981.489
2018-12-16T19:44:50.278Z,981.456
2018-12-16T19:46:50.236Z,981.418
2018-12-16T19:48:50.078Z,981.399
2018-12-16T19:50:50.062Z,981.390
2018-12-16T19:52:49.950Z,981.410
2018-12-16T19:54:49.889Z,981.416
2018-12-16T19:56:49.871Z,981.425
2018-12-16T19:58:49.741Z,981.401
2018-12-16T20:00:50.584Z,981.374
2018-12-16T20:02:50.367Z,981.374
2018-12-16T20:04:50.637Z,981.346
2018-12-16T20:06:49.646Z,981.360
2018-12-16T20:08:50.584Z,981.402
2018-12-16T20:10:50.467Z,981.412
2018-12-16T20:12:50.270Z,981.458
2018-12-16T20:14:50.151Z,981.464
2018-12-16T20:16:50.083Z,981.500
2018-12-16T20:18:49.939Z,981.498
2018-12-16T20:20:49.886Z,981.496
2018-12-16T20:22:49.745Z,981.531
2018-12-16T20:24:50.572Z,981.526
2018-12-16T20:26:49.635Z,981.532
2018-12-16T20:28:50.508Z,981.562
2018-12-16T20:30:50.284Z,981.587
2018-12-16T20:32:50.081Z,981.634
2018-12-16T20:34:50.390Z,981.642
2018-12-16T20:36:50.386Z,981.653
2018-12-16T20:38:50.340Z,981.641
2018-12-16T20:40:50.185Z,981.638
2018-12-16T20:42:50.110Z,981.654
2018-12-16T20:44:50.042Z,981.669
2018-12-16T20:46:50.195Z,981.641
2018-12-16T20:48:50.044Z,981.630
2018-12-16T20:50:49.892Z,981.622
2018-12-16T20:52:49.638Z,981.630
2018-12-16T20:54:50.477Z,981.638
2018-12-16T20:56:50.511Z,981.671
2018-12-16T20:58:50.326Z,981.683
2018-12-16T21:00:50.191Z,981.692
2018-12-16T21:02:50.168Z,981.698
2018-12-16T21:04:50.390Z,981.702
2018-12-16T21:06:49.659Z,981.702
2018-12-16T21:08:49.654Z,981.698
2018-12-16T21:10:49.717Z,981.701
2018-12-16T21:12:49.758Z,981.716
2018-12-16T21:14:49.871Z,981.735
2018-12-16T21:16:50.041Z,981.758
2018-12-16T21:18:50.021Z,981.791
2018-12-16T21:20:50.031Z,981.818
2018-12-16T21:22:50.208Z,981.808
2018-12-16T21:24:50.196Z,981.831
2018-12-16T21:26:50.418Z,981.835
2018-12-16T21:28:50.422Z,981.836
2018-12-16T21:30:50.453Z,981.832
2018-12-16T21:32:50.565Z,981.842
2018-12-16T21:34:50.048Z,981.846
2018-12-16T21:36:50.256Z,981.841
2018-12-16T21:38:50.196Z,981.848
2018-12-16T21:40:50.275Z,981.870
2018-12-16T21:42:50.288Z,981.882
2018-12-16T21:44:50.338Z,981.897
2018-12-16T21:46:50.545Z,981.899
2018-12-16T21:48:50.580Z,981.927
2018-12-16T21:50:50.569Z,981.946
2018-12-16T21:52:50.643Z,981.960
2018-12-16T21:54:49.640Z,981.963
2018-12-16T21:56:49.923Z,981.986
2018-12-16T21:58:49.966Z,981.994
2018-12-16T22:00:49.962Z,982.005
2018-12-16T22:02:49.958Z,982.029
2018-12-16T22:04:50.344Z,982.051
2018-12-16T22:06:50.624Z,982.031
2018-12-16T22:08:49.632Z,981.997
2018-12-16T22:10:49.690Z,981.982
2018-12-16T22:12:49.701Z,981.962
2018-12-16T22:14:49.770Z,981.940
2018-12-16T22:16:50.117Z,981.942
2018-12-16T22:18:50.184Z,981.934
2018-12-16T22:20:50.180Z,981.939
2018-12-16T22:22:50.209Z,981.941
2018-12-16T22:24:50.247Z,981.933
2018-12-16T22:26:50.507Z,981.948
2018-12-16T22:28:50.476Z,981.986
2018-12-16T22:30:50.445Z,982.000
2018-12-16T22:32:50.560Z,982.004
2018-12-16T22:34:49.954Z,982.027
2018-12-16T22:36:50.217Z,982.039
2018-12-16T22:38:50.273Z,982.017
2018-12-16T22:40:50.267Z,982.013
2018-12-16T22:42:50.475Z,982.032
2018-12-16T22:44:50.452Z,982.055
2018-12-16T22:46:49.706Z,982.061
2018-12-16T22:48:49.701Z,982.025
2018-12-16T22:50:49.721Z,982.025
2018-12-16T22:52:49.780Z,982.036
2018-12-16T22:54:49.771Z,982.036
2018-12-16T22:56:50.015Z,982.098
2018-12-16T22:58:54.819Z,982.089
2018-12-16T23:00:49.977Z,982.076
2018-12-16T23:02:50.047Z,982.065
2018-12-16T23:04:50.344Z,982.099
2018-12-16T23:06:49.664Z,982.101
2018-12-16T23:08:49.784Z,982.102
2018-12-16T23:10:49.883Z,982.076
2018-12-16T23:12:49.926Z,982.076
2018-12-16T23:14:51.343Z,982.085
2018-12-16T23:16:50.507Z,982.094
2018-12-16T23:18:50.606Z,982.098
2018-12-16T23:20:49.655Z,982.096
2018-12-16T23:22:49.745Z,982.092
2018-12-16T23:24:49.676Z,982.116
2018-12-16T23:26:49.878Z,982.133
2018-12-16T23:28:49.888Z,982.137
2018-12-16T23:30:49.863Z,982.156
2018-12-16T23:32:49.816Z,982.148
2018-12-16T23:34:50.379Z,982.148
2018-12-16T23:36:49.718Z,982.141
2018-12-16T23:38:49.746Z,982.134
2018-12-16T23:40:49.770Z,982.124
2018-12-16T23:42:49.882Z,982.117
2018-12-16T23:44:49.981Z,982.108
2018-12-16T23:46:50.204Z,982.100
2018-12-16T23:48:50.230Z,982.095
2018-12-16T23:50:50.271Z,982.107
2018-12-16T23:52:50.333Z,982.118
2018-12-16T23:54:50.430Z,982.131
2018-12-16T23:56:49.601Z,982.153
2018-12-16T23:58:49.670Z,982.186
